createdAt,value
2023-03-20T00:02:23.133Z,11.16
2023-03-20T00:04:50.108Z,11.22
2023-03-20T00:07:16.745Z,11.09
2023-03-20T00:09:43.293Z,10.95
2023-03-20T00:12:24.070Z,10.82
2023-03-20T00:14:50.752Z,10.86
2023-03-20T00:17:21.104Z,10.94
2023-03-20T00:19:48.179Z,11.06
2023-03-20T00:22:14.664Z,11.13
2023-03-20T00:24:41.410Z,11.18
2023-03-20T00:27:14.338Z,11.19
2023-03-20T00:29:41.150Z,11.15
2023-03-20T00:32:15.034Z,11.03
2023-03-20T00:34:41.978Z,11.06
2023-03-20T00:37:11.416Z,11.04
2023-03-20T00:39:37.913Z,11.11
2023-03-20T00:42:11.421Z,11.11
2023-03-20T00:44:45.708Z,11.15
2023-03-20T00:47:18.551Z,11.20
2023-03-20T00:49:49.828Z,11.10
2023-03-20T00:52:19.581Z,11.09
2023-03-20T00:54:46.614Z,11.12
2023-03-20T00:57:30.514Z,11.04
2023-03-20T01:00:02.425Z,10.91
2023-03-20T01:02:31.129Z,10.89
2023-03-20T01:04:58.425Z,10.87
2023-03-20T01:07:24.948Z,10.78
2023-03-20T01:09:52.579Z,10.82
2023-03-20T01:12:19.230Z,10.88
2023-03-20T01:14:57.358Z,10.90
2023-03-20T01:17:26.761Z,10.96
2023-03-20T01:19:53.997Z,10.90
2023-03-20T01:22:20.537Z,10.88
2023-03-20T01:24:47.807Z,10.94
2023-03-20T01:27:18.128Z,10.91
2023-03-20T01:29:45.609Z,10.90
2023-03-20T01:32:18.601Z,10.88
2023-03-20T01:34:45.107Z,10.67
2023-03-20T01:37:23.853Z,10.62
2023-03-20T01:39:50.626Z,10.63
2023-03-20T01:42:18.117Z,10.62
2023-03-20T01:44:45.567Z,10.59
2023-03-20T01:47:19.041Z,10.49
2023-03-20T01:50:28.983Z,10.08
2023-03-20T01:53:05.915Z,10.07
2023-03-20T01:55:33.380Z,10.03
2023-03-20T01:58:08.933Z,10.06
2023-03-20T02:00:36.619Z,10.08
2023-03-20T02:03:07.458Z,10.04
2023-03-20T02:05:35.320Z,10.04
2023-03-20T02:08:32.600Z,9.97
2023-03-20T02:11:01.987Z,10.00
2023-03-20T02:13:31.715Z,9.97
2023-03-20T02:16:12.194Z,9.87
2023-03-20T02:18:45.657Z,9.73
2023-03-20T02:21:45.384Z,9.51
2023-03-20T02:25:24.567Z,9.50
2023-03-20T02:28:39.124Z,9.32
2023-03-20T02:31:42.104Z,9.37
2023-03-20T02:34:45.836Z,9.31
2023-03-20T02:37:47.740Z,9.36
2023-03-20T02:40:47.960Z,9.26
2023-03-20T02:43:43.069Z,9.39
2023-03-20T02:46:35.820Z,9.37
2023-03-20T02:49:33.860Z,9.34
2023-03-20T02:52:28.963Z,9.35
2023-03-20T02:55:35.556Z,9.37
2023-03-20T02:58:26.584Z,9.06
2023-03-20T03:01:16.035Z,9.19
2023-03-20T03:04:02.115Z,9.26
2023-03-20T03:06:32.597Z,9.22
2023-03-20T03:09:09.389Z,9.27
2023-03-20T03:11:43.835Z,9.09
2023-03-20T03:14:29.579Z,9.11
2023-03-20T03:17:01.052Z,9.12
2023-03-20T03:19:30.019Z,9.11
2023-03-20T03:21:56.774Z,9.10
2023-03-20T03:24:41.412Z,9.04
2023-03-20T03:27:42.578Z,9.02
2023-03-20T03:30:21.891Z,8.98
2023-03-20T03:33:20.058Z,9.04
2023-03-20T03:35:48.317Z,9.03
2023-03-20T03:38:54.083Z,9.08
2023-03-20T03:41:39.860Z,8.96
2023-03-20T03:44:16.038Z,8.94
2023-03-20T03:47:11.414Z,8.94
2023-03-20T03:49:46.044Z,9.12
2023-03-20T03:52:22.459Z,9.19
2023-03-20T03:54:56.685Z,9.22
2023-03-20T03:57:37.660Z,9.23
2023-03-20T04:00:07.215Z,9.32
2023-03-20T04:02:35.674Z,9.41
2023-03-20T04:05:06.353Z,9.42
2023-03-20T04:07:32.850Z,9.33
2023-03-20T04:09:59.327Z,9.27
2023-03-20T04:12:35.282Z,9.28
2023-03-20T04:15:03.601Z,9.28
2023-03-20T04:17:31.228Z,9.31
2023-03-20T04:19:58.271Z,9.36
2023-03-20T04:22:24.878Z,9.36
2023-03-20T04:24:52.599Z,9.38
2023-03-20T04:27:19.864Z,9.47
2023-03-20T04:29:46.664Z,9.39
2023-03-20T04:32:13.329Z,9.34
2023-03-20T04:34:39.868Z,9.35
2023-03-20T04:37:08.290Z,9.38
2023-03-20T04:39:36.750Z,9.31
2023-03-20T04:42:06.042Z,9.30
2023-03-20T04:44:32.653Z,9.23
2023-03-20T04:46:59.113Z,9.35
2023-03-20T04:49:25.781Z,9.35
2023-03-20T04:51:53.167Z,9.23
2023-03-20T04:54:19.674Z,9.20
2023-03-20T04:56:46.233Z,9.22
2023-03-20T04:59:12.864Z,9.20
2023-03-20T05:01:39.486Z,9.19
2023-03-20T05:04:06.518Z,9.19
2023-03-20T05:06:33.798Z,9.21
2023-03-20T05:09:00.948Z,9.25
2023-03-20T05:11:28.743Z,9.31
2023-03-20T05:13:55.677Z,9.24
2023-03-20T05:16:22.197Z,9.21
2023-03-20T05:18:48.816Z,9.24
2023-03-20T05:21:15.848Z,9.22
2023-03-20T05:23:42.317Z,9.29
2023-03-20T05:26:08.853Z,9.24
2023-03-20T05:28:35.394Z,9.16
2023-03-20T05:31:02.015Z,9.15
2023-03-20T05:33:28.665Z,9.11
2023-03-20T05:35:55.369Z,8.94
2023-03-20T05:38:25.625Z,8.89
2023-03-20T05:41:00.336Z,8.90
2023-03-20T05:43:29.031Z,9.04
2023-03-20T05:45:56.866Z,9.00
2023-03-20T05:48:23.940Z,8.94
2023-03-20T05:50:50.882Z,8.95
2023-03-20T05:53:17.457Z,8.89
2023-03-20T05:55:44.754Z,8.90
2023-03-20T05:58:12.196Z,9.00
2023-03-20T06:00:39.840Z,8.95
2023-03-20T06:03:09.546Z,9.01
2023-03-20T06:05:36.645Z,8.98
2023-03-20T06:08:04.618Z,8.98
2023-03-20T06:10:31.542Z,9.05
2023-03-20T06:13:01.068Z,8.99
2023-03-20T06:15:28.799Z,8.96
2023-03-20T06:17:56.388Z,9.09
2023-03-20T06:20:24.242Z,9.20
2023-03-20T06:22:51.239Z,9.17
2023-03-20T06:25:18.996Z,9.06
2023-03-20T06:27:49.067Z,9.06
2023-03-20T06:30:16.425Z,9.18
2023-03-20T06:32:43.772Z,9.25
2023-03-20T06:35:11.978Z,9.25
2023-03-20T06:37:38.672Z,9.25
2023-03-20T06:40:06.845Z,9.22
2023-03-20T06:42:33.501Z,9.25
2023-03-20T06:45:00.147Z,9.24
2023-03-20T06:47:27.055Z,9.28
2023-03-20T06:49:53.568Z,9.28
2023-03-20T06:52:25.062Z,9.24
2023-03-20T06:54:52.086Z,9.08
2023-03-20T06:57:18.620Z,9.15
2023-03-20T06:59:45.475Z,9.19
2023-03-20T07:02:12.072Z,9.22
2023-03-20T07:04:39.292Z,9.28
2023-03-20T07:07:05.829Z,9.34
2023-03-20T07:09:33.070Z,9.32
2023-03-20T07:12:00.160Z,9.35
2023-03-20T07:14:26.690Z,9.33
2023-03-20T07:16:53.282Z,9.37
2023-03-20T07:19:20.319Z,9.43
2023-03-20T07:21:47.081Z,9.47
2023-03-20T07:24:14.372Z,9.53
2023-03-20T07:26:41.232Z,9.45
2023-03-20T07:29:08.001Z,9.44
2023-03-20T07:31:34.658Z,9.49
2023-03-20T07:34:01.234Z,9.44
2023-03-20T07:36:27.775Z,9.39
2023-03-20T07:38:54.253Z,9.31
2023-03-20T07:41:20.846Z,9.39
2023-03-20T07:43:47.301Z,9.36
2023-03-20T07:46:13.919Z,9.29
2023-03-20T07:48:41.164Z,9.02
2023-03-20T07:51:08.060Z,8.92
2023-03-20T07:53:34.573Z,8.94
2023-03-20T07:56:01.135Z,8.95
2023-03-20T07:58:27.628Z,9.00
2023-03-20T08:00:56.482Z,8.94
2023-03-20T08:03:23.054Z,9.06
2023-03-20T08:05:49.935Z,9.20
2023-03-20T08:08:16.606Z,9.23
2023-03-20T08:10:43.467Z,9.32
2023-03-20T08:13:10.003Z,9.42
2023-03-20T08:15:36.738Z,9.36
2023-03-20T08:18:03.825Z,9.44
2023-03-20T08:20:31.613Z,9.58
2023-03-20T08:22:58.122Z,9.64
2023-03-20T08:25:24.584Z,9.56
2023-03-20T08:27:51.145Z,9.37
2023-03-20T08:30:17.782Z,9.18
2023-03-20T08:32:44.352Z,9.00
2023-03-20T08:35:25.770Z,9.07
2023-03-20T08:37:56.545Z,9.04
2023-03-20T08:40:23.439Z,9.15
2023-03-20T08:42:49.980Z,9.27
2023-03-20T08:45:17.043Z,9.45
2023-03-20T08:47:43.702Z,9.59
2023-03-20T08:50:11.935Z,9.68
2023-03-20T08:52:38.460Z,9.60
2023-03-20T08:55:06.737Z,9.71
2023-03-20T08:57:33.184Z,9.75
2023-03-20T08:59:59.679Z,9.82
2023-03-20T09:02:26.456Z,10.00
2023-03-20T09:04:52.999Z,9.98
2023-03-20T09:07:19.522Z,9.89
2023-03-20T09:09:45.989Z,10.10
2023-03-20T09:12:12.520Z,10.10
2023-03-20T09:14:39.408Z,9.96
2023-03-20T09:17:05.937Z,10.04
2023-03-20T09:19:32.465Z,9.99
2023-03-20T09:21:59.809Z,10.10
2023-03-20T09:24:26.689Z,10.16
2023-03-20T09:26:53.194Z,9.91
2023-03-20T09:29:19.683Z,9.91
2023-03-20T09:31:46.288Z,9.93
2023-03-20T09:34:12.906Z,10.07
2023-03-20T09:36:39.383Z,10.14
2023-03-20T09:39:05.918Z,10.21
2023-03-20T09:41:45.861Z,10.18
2023-03-20T09:45:08.372Z,10.06
2023-03-20T09:47:59.709Z,9.97
2023-03-20T09:50:39.891Z,10.17
2023-03-20T09:53:33.330Z,10.42
2023-03-20T09:56:00.673Z,10.69
2023-03-20T09:58:34.109Z,10.84
2023-03-20T10:01:06.657Z,10.78
2023-03-20T10:03:47.701Z,10.65
2023-03-20T10:06:17.861Z,10.81
2023-03-20T10:08:46.447Z,10.77
2023-03-20T10:11:23.560Z,10.69
2023-03-20T10:14:22.429Z,10.94
2023-03-20T10:17:11.849Z,10.83
2023-03-20T10:19:53.499Z,11.01
2023-03-20T10:22:32.412Z,11.16
2023-03-20T10:25:15.675Z,11.21
2023-03-20T10:28:01.572Z,11.38
2023-03-20T10:30:51.307Z,11.41
2023-03-20T10:33:40.429Z,11.44
2023-03-20T10:36:38.965Z,11.44
2023-03-20T10:39:31.586Z,11.47
2023-03-20T10:42:03.802Z,11.60
2023-03-20T10:44:46.262Z,11.54
2023-03-20T10:47:19.051Z,11.34
2023-03-20T10:50:09.074Z,11.12
2023-03-20T10:52:41.732Z,11.32
2023-03-20T10:55:16.662Z,11.45
2023-03-20T10:57:53.238Z,11.56
2023-03-20T11:00:24.273Z,11.07
2023-03-20T11:02:50.910Z,11.20
2023-03-20T11:05:32.564Z,11.11
2023-03-20T11:08:12.397Z,11.35
2023-03-20T11:10:42.351Z,11.22
2023-03-20T11:13:43.850Z,10.95
2023-03-20T11:16:20.323Z,11.11
2023-03-20T11:18:49.331Z,11.12
2023-03-20T11:21:22.667Z,11.44
2023-03-20T11:23:50.842Z,11.70
2023-03-20T11:26:34.674Z,11.59
2023-03-20T11:29:01.682Z,11.63
2023-03-20T11:31:40.664Z,11.58
2023-03-20T11:34:07.400Z,11.46
2023-03-20T11:36:36.680Z,11.66
2023-03-20T11:39:16.122Z,11.60
2023-03-20T11:41:50.195Z,11.54
2023-03-20T11:44:36.648Z,11.28
2023-03-20T11:47:12.144Z,11.44
2023-03-20T11:49:57.523Z,11.71
2023-03-20T11:52:32.802Z,11.61
2023-03-20T11:55:04.269Z,11.66
2023-03-20T11:57:42.708Z,11.59
2023-03-20T12:00:11.930Z,11.42
2023-03-20T12:02:41.339Z,11.63
2023-03-20T12:05:31.470Z,11.55
2023-03-20T12:08:24.298Z,11.42
2023-03-20T12:10:59.417Z,11.26
2023-03-20T12:13:37.721Z,11.09
2023-03-20T12:16:16.117Z,11.15
2023-03-20T12:18:51.320Z,11.36
2023-03-20T12:21:36.468Z,11.42
2023-03-20T12:24:31.202Z,11.30
2023-03-20T12:27:37.833Z,11.46
2023-03-20T12:30:20.884Z,11.56
2023-03-20T12:33:20.503Z,11.50
2023-03-20T12:35:52.221Z,11.46
2023-03-20T12:38:28.597Z,11.65
2023-03-20T12:41:10.510Z,11.56
2023-03-20T12:44:05.227Z,11.40
2023-03-20T12:46:41.914Z,11.42
2023-03-20T12:49:32.890Z,11.53
2023-03-20T12:52:35.424Z,11.26
2023-03-20T12:55:25.951Z,11.07
2023-03-20T12:58:24.493Z,11.18
2023-03-20T13:01:05.774Z,11.18
2023-03-20T13:03:49.590Z,11.04
2023-03-20T13:06:49.694Z,10.92
2023-03-20T13:09:51.979Z,10.71
2023-03-20T13:12:43.833Z,10.87
2023-03-20T13:16:01.711Z,11.04
2023-03-20T13:18:45.422Z,11.04
2023-03-20T13:21:24.516Z,11.37
2023-03-20T13:24:10.951Z,11.38
2023-03-20T13:26:58.453Z,11.52
2023-03-20T13:29:34.245Z,11.33
2023-03-20T13:32:24.302Z,11.17
2023-03-20T13:34:54.480Z,11.25
2023-03-20T13:38:11.026Z,11.29
2023-03-20T13:40:44.028Z,11.09
2023-03-20T13:43:27.901Z,11.25
2023-03-20T13:46:08.684Z,11.28
2023-03-20T13:48:43.514Z,11.54
2023-03-20T13:51:40.928Z,11.42
2023-03-20T13:54:16.684Z,11.44
2023-03-20T13:57:10.529Z,11.45
2023-03-20T13:59:58.276Z,11.38
2023-03-20T14:02:53.962Z,11.21
2023-03-20T14:05:23.874Z,11.22
2023-03-20T14:07:57.378Z,11.20
2023-03-20T14:10:24.143Z,11.20
2023-03-20T14:13:00.800Z,11.32
2023-03-20T14:15:34.672Z,11.44
2023-03-20T14:18:16.662Z,11.22
2023-03-20T14:20:53.230Z,11.46
2023-03-20T14:23:49.188Z,11.02
2023-03-20T14:26:27.069Z,10.89
2023-03-20T14:29:02.535Z,10.71
2023-03-20T14:31:37.880Z,10.87
2023-03-20T14:34:12.216Z,10.83
2023-03-20T14:37:05.479Z,10.98
2023-03-20T14:40:04.088Z,10.84
2023-03-20T14:43:11.262Z,11.05
2023-03-20T14:45:47.359Z,11.06
2023-03-20T14:48:31.020Z,11.16
2023-03-20T14:51:18.426Z,10.79
2023-03-20T14:54:21.820Z,10.79
2023-03-20T14:56:50.590Z,10.72
2023-03-20T14:59:20.414Z,10.58
2023-03-20T15:01:58.685Z,10.35
2023-03-20T15:04:30.950Z,10.39
2023-03-20T15:07:01.942Z,10.55
2023-03-20T15:09:33.054Z,10.66
2023-03-20T15:12:04.197Z,10.65
2023-03-20T15:14:55.241Z,10.42
2023-03-20T15:17:39.749Z,10.64
2023-03-20T15:20:19.120Z,10.82
2023-03-20T15:23:01.235Z,10.84
2023-03-20T15:25:45.838Z,10.86
2023-03-20T15:28:19.518Z,10.96
2023-03-20T15:30:49.214Z,11.11
2023-03-20T15:33:28.567Z,11.19
2023-03-20T15:35:56.491Z,11.27
2023-03-20T15:38:32.988Z,11.18
2023-03-20T15:40:59.534Z,11.09
2023-03-20T15:43:27.840Z,11.06
2023-03-20T15:46:16.268Z,11.05
2023-03-20T15:48:49.185Z,10.72
2023-03-20T15:51:18.059Z,10.63
2023-03-20T15:53:48.352Z,10.67
2023-03-20T15:56:19.559Z,10.79
2023-03-20T15:58:52.504Z,10.85
2023-03-20T16:01:22.875Z,10.86
2023-03-20T16:03:51.284Z,10.95
2023-03-20T16:06:21.333Z,10.93
2023-03-20T16:09:06.290Z,10.90
2023-03-20T16:11:43.134Z,10.96
2023-03-20T16:14:23.300Z,10.99
2023-03-20T16:16:53.578Z,10.96
2023-03-20T16:19:20.557Z,10.93
2023-03-20T16:22:02.662Z,10.93
2023-03-20T16:24:39.340Z,11.00
2023-03-20T16:27:10.354Z,10.70
2023-03-20T16:29:42.637Z,10.62
2023-03-20T16:32:31.608Z,10.64
2023-03-20T16:35:01.365Z,10.63
2023-03-20T16:37:42.803Z,10.59
2023-03-20T16:40:34.628Z,10.53
2023-03-20T16:43:17.754Z,10.58
2023-03-20T16:45:51.292Z,10.68
2023-03-20T16:48:26.636Z,10.71
2023-03-20T16:51:17.751Z,10.73
2023-03-20T16:53:58.270Z,10.73
2023-03-20T16:56:38.238Z,10.60
2023-03-20T16:59:11.549Z,10.64
2023-03-20T17:01:44.789Z,10.63
2023-03-20T17:04:23.876Z,10.67
2023-03-20T17:06:59.173Z,10.75
2023-03-20T17:09:31.592Z,10.78
2023-03-20T17:12:14.512Z,10.81
2023-03-20T17:14:41.547Z,10.83
2023-03-20T17:17:20.942Z,10.79
2023-03-20T17:19:51.795Z,10.78
2023-03-20T17:22:25.344Z,10.67
2023-03-20T17:24:52.740Z,10.61
2023-03-20T17:27:20.629Z,10.51
2023-03-20T17:29:51.042Z,10.45
2023-03-20T17:32:23.885Z,10.36
2023-03-20T17:34:51.374Z,10.32
2023-03-20T17:37:27.149Z,10.29
2023-03-20T17:39:55.726Z,10.36
2023-03-20T17:42:30.545Z,10.35
2023-03-20T17:44:59.092Z,10.29
2023-03-20T17:47:27.914Z,10.18
2023-03-20T17:49:54.875Z,10.16
2023-03-20T17:52:28.201Z,10.13
2023-03-20T17:54:55.011Z,10.11
2023-03-20T17:57:31.573Z,9.98
2023-03-20T17:59:58.784Z,9.60
2023-03-20T18:02:25.516Z,9.50
2023-03-20T18:04:52.508Z,9.84
2023-03-20T18:07:20.093Z,9.94
2023-03-20T18:09:47.415Z,10.01
2023-03-20T18:12:17.452Z,10.04
2023-03-20T18:14:45.936Z,10.06
2023-03-20T18:17:15.243Z,10.06
2023-03-20T18:19:44.014Z,9.89
2023-03-20T18:22:11.252Z,9.81
2023-03-20T18:24:43.394Z,9.78
2023-03-20T18:27:11.663Z,9.84
2023-03-20T18:29:41.172Z,9.90
2023-03-20T18:32:07.685Z,9.97
2023-03-20T18:34:34.158Z,9.95
2023-03-20T18:37:01.303Z,9.83
2023-03-20T18:39:27.871Z,9.83
2023-03-20T18:41:54.540Z,9.82
2023-03-20T18:44:21.761Z,9.81
2023-03-20T18:46:49.434Z,9.79
2023-03-20T18:49:17.986Z,9.67
2023-03-20T18:51:45.688Z,9.60
2023-03-20T18:54:12.693Z,9.69
2023-03-20T18:56:39.243Z,9.59
2023-03-20T18:59:10.482Z,9.62
2023-03-20T19:01:37.129Z,9.66
2023-03-20T19:04:03.665Z,9.66
2023-03-20T19:06:32.031Z,9.69
2023-03-20T19:08:58.879Z,9.69
2023-03-20T19:11:25.554Z,9.68
2023-03-20T19:13:53.841Z,9.71
2023-03-20T19:16:25.805Z,9.55
2023-03-20T19:18:58.864Z,9.48
2023-03-20T19:21:28.921Z,9.55
2023-03-20T19:24:05.948Z,9.57
2023-03-20T19:26:35.747Z,9.62
2023-03-20T19:29:10.041Z,9.49
2023-03-20T19:31:36.896Z,9.44
2023-03-20T19:34:03.414Z,9.43
2023-03-20T19:36:36.791Z,9.35
2023-03-20T19:39:07.373Z,9.34
2023-03-20T19:41:34.258Z,9.38
2023-03-20T19:44:01.510Z,9.35
2023-03-20T19:46:44.032Z,9.23
2023-03-20T19:49:30.206Z,9.14
2023-03-20T19:51:57.443Z,9.20
2023-03-20T19:54:24.027Z,9.18
2023-03-20T19:56:50.588Z,9.23
2023-03-20T19:59:17.371Z,9.27
2023-03-20T20:01:45.580Z,9.31
2023-03-20T20:04:12.377Z,9.35
2023-03-20T20:06:39.904Z,9.38
2023-03-20T20:09:07.018Z,9.41
2023-03-20T20:11:33.546Z,9.45
2023-03-20T20:14:09.349Z,9.49
2023-03-20T20:16:39.475Z,9.09
2023-03-20T20:19:06.284Z,9.25
2023-03-20T20:24:19.789Z,9.33
2023-03-20T20:27:11.646Z,9.33
2023-03-20T20:29:41.908Z,9.36
2023-03-20T20:32:08.618Z,9.42
2023-03-20T20:40:14.238Z,9.11
2023-03-20T20:42:42.441Z,9.14
2023-03-20T20:45:14.556Z,9.21
2023-03-20T20:47:44.797Z,9.28
2023-03-20T20:50:15.285Z,9.25
2023-03-20T20:52:42.860Z,9.32
2023-03-20T20:55:26.567Z,9.19
2023-03-20T20:57:55.620Z,9.23
2023-03-20T21:00:41.005Z,9.32
2023-03-20T21:03:12.564Z,9.34
2023-03-20T21:05:42.762Z,9.35
2023-03-20T21:08:11.220Z,9.41
2023-03-20T21:10:37.726Z,9.45
2023-03-20T21:13:04.203Z,9.45
2023-03-20T21:15:30.706Z,9.25
2023-03-20T21:18:01.573Z,9.29
2023-03-20T21:20:30.179Z,9.26
2023-03-20T21:22:56.753Z,9.35
2023-03-20T21:25:36.388Z,9.39
2023-03-20T21:28:05.396Z,9.40
2023-03-20T21:30:33.523Z,9.30
2023-03-20T21:33:00.503Z,9.33
2023-03-20T21:35:27.475Z,9.32
2023-03-20T21:40:41.820Z,9.39
2023-03-20T21:43:09.315Z,9.43
2023-03-20T21:49:15.768Z,9.47
2023-03-20T21:52:14.501Z,9.37
2023-03-20T21:54:48.673Z,9.26
2023-03-20T21:57:18.912Z,9.17
2023-03-20T22:00:20.296Z,8.93
2023-03-20T22:02:23.673Z,8.94
2023-03-20T22:05:50.411Z,9.06
2023-03-20T22:08:19.527Z,9.14
2023-03-20T22:11:20.291Z,9.14
2023-03-20T22:14:09.137Z,9.15
2023-03-20T22:16:57.579Z,9.20
2023-03-20T22:19:41.551Z,9.19
2023-03-20T22:30:41.948Z,9.11
2023-03-20T22:33:46.957Z,9.14
2023-03-20T22:36:19.779Z,9.17
2023-03-20T22:39:11.731Z,9.18
2023-03-20T22:46:45.672Z,9.06
2023-03-20T22:49:13.277Z,9.01
2023-03-20T22:51:52.106Z,9.11
2023-03-20T22:54:24.444Z,9.19
2023-03-20T22:56:50.921Z,9.22
2023-03-20T22:59:17.387Z,9.20
2023-03-20T23:01:43.871Z,9.19
2023-03-20T23:04:10.373Z,9.24
2023-03-20T23:06:36.880Z,9.22
2023-03-20T23:09:12.843Z,9.25
2023-03-20T23:11:41.769Z,9.24
2023-03-20T23:14:18.163Z,9.26
2023-03-20T23:16:49.653Z,9.25
2023-03-20T23:19:16.673Z,9.25
2023-03-20T23:21:43.269Z,9.14
2023-03-20T23:24:09.896Z,9.19
2023-03-20T23:26:36.473Z,9.20
2023-03-20T23:29:03.521Z,9.25
2023-03-20T23:31:30.262Z,9.32
2023-03-20T23:33:58.108Z,9.35
2023-03-20T23:36:36.461Z,9.29
2023-03-20T23:39:07.002Z,9.21
2023-03-20T23:42:03.975Z,9.15
2023-03-20T23:44:20.872Z,8.84
2023-03-20T23:46:48.352Z,9.08
2023-03-20T23:49:16.346Z,9.01
2023-03-20T23:51:42.891Z,9.06
2023-03-20T23:54:09.372Z,9.14
2023-03-20T23:56:35.861Z,9.18
2023-03-20T23:59:14.704Z,9.24
